Time,TemperatureF,DewpointF,PressureIn,WindDirection,WindDirectionDegrees,WindSpeedMPH,WindSpeedGustMPH,Humidity,HourlyPrecipIn,Conditions,Clouds,dailyrainin,SoftwareType,DateUTC
2013-02-09 00:01:00,44.8,27.3,29.87,WNW,300,1.0,4.0,50,0.00,,,0.00,meteohub,2013-02-09 08:01:00,
2013-02-09 00:06:00,45.7,27.7,29.87,WNW,298,0.0,4.0,49,0.00,,,0.00,meteohub,2013-02-09 08:06:00,
2013-02-09 00:11:00,46.0,27.5,29.87,WNW,298,0.0,4.0,48,0.00,,,0.00,meteohub,2013-02-09 08:11:00,
2013-02-09 00:16:00,46.0,27.9,29.87,WNW,297,0.0,4.0,49,0.00,,,0.00,meteohub,2013-02-09 08:16:00,
2013-02-09 00:21:00,46.0,27.9,29.87,WNW,297,0.0,4.0,49,0.00,,,0.00,meteohub,2013-02-09 08:21:00,
2013-02-09 00:26:00,46.0,27.9,29.87,WNW,297,0.0,4.0,49,0.00,,,0.00,meteohub,2013-02-09 08:26:00,
2013-02-09 00:31:00,46.0,27.9,29.87,WNW,297,1.0,3.0,49,0.00,,,0.00,meteohub,2013-02-09 08:31:00,
2013-02-09 00:36:00,46.0,27.9,29.87,WNW,297,0.0,3.0,49,0.00,,,0.00,meteohub,2013-02-09 08:36:00,
2013-02-09 00:41:00,45.9,27.3,29.87,WNW,297,1.0,2.0,48,0.00,,,0.00,meteohub,2013-02-09 08:41:00,
2013-02-09 00:46:00,45.9,28.8,29.87,SE,144,9.0,9.0,51,0.00,,,0.00,meteohub,2013-02-09 08:46:00,
2013-02-09 00:51:00,45.9,29.7,29.87,SE,126,0.0,9.0,53,0.00,,,0.00,meteohub,2013-02-09 08:51:00,
2013-02-09 00:56:00,45.5,30.2,29.87,SE,126,0.0,9.0,55,0.00,,,0.00,meteohub,2013-02-09 08:56:00,
2013-02-09 01:01:00,45.0,31.1,29.87,SE,126,0.0,9.0,58,0.00,,,0.00,meteohub,2013-02-09 09:01:00,
2013-02-09 01:06:00,44.2,30.4,29.87,SE,126,0.0,2.0,58,0.00,,,0.00,meteohub,2013-02-09 09:06:00,
2013-02-09 01:11:00,43.3,31.6,29.87,SE,126,0.0,2.0,63,0.00,,,0.00,meteohub,2013-02-09 09:11:00,
2013-02-09 01:16:00,43.0,29.7,29.87,SE,126,0.0,4.0,59,0.00,,,0.00,meteohub,2013-02-09 09:16:00,
2013-02-09 01:21:00,42.6,30.6,29.87,SE,126,0.0,4.0,62,0.00,,,0.00,meteohub,2013-02-09 09:21:00,
2013-02-09 01:26:00,42.3,30.6,29.87,SE,126,0.0,4.0,63,0.00,,,0.00,meteohub,2013-02-09 09:26:00,
2013-02-09 01:31:00,41.5,29.8,29.87,SE,126,0.0,2.0,63,0.00,,,0.00,meteohub,2013-02-09 09:31:00,
2013-02-09 01:36:00,41.2,30.7,29.87,SE,126,0.0,1.0,66,0.00,,,0.00,meteohub,2013-02-09 09:36:00,
2013-02-09 01:41:00,40.8,30.4,29.87,SE,126,0.0,1.0,66,0.00,,,0.00,meteohub,2013-02-09 09:41:00,
2013-02-09 01:46:00,40.6,30.6,29.87,SE,126,0.0,2.0,67,0.00,,,0.00,meteohub,2013-02-09 09:46:00,
2013-02-09 01:51:00,40.5,30.7,29.87,SE,126,0.0,2.0,68,0.00,,,0.00,meteohub,2013-02-09 09:51:00,
2013-02-09 01:56:00,40.3,30.9,29.87,SE,126,0.0,2.0,69,0.00,,,0.00,meteohub,2013-02-09 09:56:00,
2013-02-09 02:01:00,40.1,30.7,29.87,SE,126,0.0,1.0,69,0.00,,,0.00,meteohub,2013-02-09 10:01:00,
2013-02-09 02:06:00,39.9,30.6,29.87,SE,126,0.0,1.0,69,0.00,,,0.00,meteohub,2013-02-09 10:06:00,
2013-02-09 02:11:00,39.6,29.8,29.87,SE,126,0.0,1.0,68,0.00,,,0.00,meteohub,2013-02-09 10:11:00,
2013-02-09 02:16:00,39.6,29.8,29.87,SE,126,0.0,1.0,68,0.00,,,0.00,meteohub,2013-02-09 10:16:00,
2013-02-09 02:21:00,39.4,30.0,29.87,SE,126,0.0,1.0,69,0.00,,,0.00,meteohub,2013-02-09 10:21:00,
2013-02-09 02:26:00,39.4,29.7,29.88,SE,126,0.0,1.0,68,0.00,,,0.00,meteohub,2013-02-09 10:26:00,
2013-02-09 02:31:00,39.6,30.2,29.88,SE,126,0.0,2.0,69,0.00,,,0.00,meteohub,2013-02-09 10:31:00,
2013-02-09 02:36:00,39.6,30.6,29.88,SE,126,0.0,2.0,70,0.00,,,0.00,meteohub,2013-02-09 10:36:00,
2013-02-09 02:41:00,39.4,30.4,29.88,SE,126,0.0,2.0,70,0.00,,,0.00,meteohub,2013-02-09 10:41:00,
2013-02-09 02:46:00,39.0,30.0,29.88,SE,126,0.0,1.0,70,0.00,,,0.00,meteohub,2013-02-09 10:46:00,
2013-02-09 02:52:00,39.0,30.4,29.88,SE,126,1.0,1.0,71,0.00,,,0.00,meteohub,2013-02-09 10:52:00,
2013-02-09 02:57:00,38.8,30.6,29.88,SE,126,0.0,1.0,72,0.00,,,0.00,meteohub,2013-02-09 10:57:00,
2013-02-09 03:02:00,38.8,30.6,29.88,SE,126,0.0,1.0,72,0.00,,,0.00,meteohub,2013-02-09 11:02:00,
2013-02-09 03:07:00,38.7,30.7,29.88,SE,126,0.0,1.0,73,0.00,,,0.00,meteohub,2013-02-09 11:07:00,
2013-02-09 03:12:00,38.7,31.1,29.88,SE,126,0.0,0.0,74,0.00,,,0.00,meteohub,2013-02-09 11:12:00,
2013-02-09 03:17:00,38.8,32.0,29.88,SE,126,0.0,3.0,76,0.00,,,0.00,meteohub,2013-02-09 11:17:00,
2013-02-09 03:22:00,39.0,32.2,29.88,SE,126,0.0,3.0,76,0.00,,,0.00,meteohub,2013-02-09 11:22:00,
2013-02-09 03:27:00,39.4,32.5,29.88,SE,126,0.0,3.0,76,0.00,,,0.00,meteohub,2013-02-09 11:27:00,
2013-02-09 03:32:00,39.0,31.8,29.88,SE,126,0.0,1.0,75,0.00,,,0.00,meteohub,2013-02-09 11:32:00,
2013-02-09 03:37:00,38.8,32.2,29.88,SE,126,0.0,2.0,77,0.00,,,0.00,meteohub,2013-02-09 11:37:00,
2013-02-09 03:42:00,38.5,31.6,29.88,SE,126,0.0,2.0,76,0.00,,,0.00,meteohub,2013-02-09 11:42:00,
2013-02-09 03:47:00,38.3,32.0,29.88,SE,126,0.0,2.0,78,0.00,,,0.00,meteohub,2013-02-09 11:47:00,
2013-02-09 03:52:00,37.9,31.5,29.88,SE,126,0.0,1.0,77,0.00,,,0.00,meteohub,2013-02-09 11:52:00,
2013-02-09 03:57:00,37.6,31.3,29.88,SE,126,0.0,0.0,78,0.00,,,0.00,meteohub,2013-02-09 11:57:00,
2013-02-09 04:02:00,37.2,31.3,29.88,SE,126,0.0,0.0,79,0.00,,,0.00,meteohub,2013-02-09 12:02:00,
2013-02-09 04:07:00,36.9,30.9,29.88,SE,126,0.0,0.0,79,0.00,,,0.00,meteohub,2013-02-09 12:07:00,
2013-02-09 04:12:00,36.7,31.1,29.88,SE,126,0.0,0.0,80,0.00,,,0.00,meteohub,2013-02-09 12:12:00,
2013-02-09 04:17:00,36.3,31.1,29.88,SE,126,0.0,0.0,81,0.00,,,0.00,meteohub,2013-02-09 12:17:00,
2013-02-09 04:22:00,36.1,30.9,29.88,SE,126,0.0,0.0,81,0.00,,,0.00,meteohub,2013-02-09 12:22:00,
2013-02-09 04:27:00,36.1,31.1,29.88,SE,126,0.0,0.0,82,0.00,,,0.00,meteohub,2013-02-09 12:27:00,
2013-02-09 04:32:00,36.0,31.3,29.88,SE,126,0.0,0.0,83,0.00,,,0.00,meteohub,2013-02-09 12:32:00,
2013-02-09 04:37:00,36.0,31.3,29.88,SE,126,0.0,0.0,83,0.00,,,0.00,meteohub,2013-02-09 12:37:00,
2013-02-09 04:42:00,36.0,31.3,29.88,SE,126,0.0,0.0,83,0.00,,,0.00,meteohub,2013-02-09 12:42:00,
2013-02-09 04:47:00,35.8,31.1,29.88,SE,126,0.0,0.0,83,0.00,,,0.00,meteohub,2013-02-09 12:47:00,
2013-02-09 04:52:00,35.8,31.1,29.88,SE,126,0.0,0.0,83,0.00,,,0.00,meteohub,2013-02-09 12:52:00,
2013-02-09 04:57:00,35.4,30.6,29.88,SE,126,0.0,0.0,82,0.00,,,0.00,meteohub,2013-02-09 12:57:00,
2013-02-09 05:02:00,35.4,31.1,29.88,SE,126,0.0,1.0,84,0.00,,,0.00,meteohub,2013-02-09 13:02:00,
2013-02-09 05:07:00,35.2,30.6,29.88,SE,126,0.0,1.0,83,0.00,,,0.00,meteohub,2013-02-09 13:07:00,
2013-02-09 05:12:00,35.2,30.9,29.88,SE,126,0.0,1.0,84,0.00,,,0.00,meteohub,2013-02-09 13:12:00,
2013-02-09 05:17:00,35.2,30.9,29.88,SE,126,0.0,1.0,84,0.00,,,0.00,meteohub,2013-02-09 13:17:00,
2013-02-09 05:22:00,35.2,30.6,29.88,SE,126,0.0,1.0,83,0.00,,,0.00,meteohub,2013-02-09 13:22:00,
2013-02-09 05:27:00,35.2,30.6,29.88,SE,126,0.0,1.0,83,0.00,,,0.00,meteohub,2013-02-09 13:27:00,
2013-02-09 05:32:00,35.4,30.7,29.88,SE,126,0.0,1.0,83,0.00,,,0.00,meteohub,2013-02-09 13:32:00,
2013-02-09 05:37:00,35.6,30.9,29.88,SE,126,0.0,1.0,83,0.00,,,0.00,meteohub,2013-02-09 13:37:00,
2013-02-09 05:42:00,35.6,30.7,29.89,SE,126,0.0,2.0,82,0.00,,,0.00,meteohub,2013-02-09 13:42:00,
2013-02-09 05:47:00,35.8,30.7,29.89,SE,126,0.0,2.0,82,0.00,,,0.00,meteohub,2013-02-09 13:47:00,
2013-02-09 05:52:00,35.8,31.1,29.89,SE,126,0.0,2.0,83,0.00,,,0.00,meteohub,2013-02-09 13:52:00,
2013-02-09 05:57:00,36.1,31.1,29.89,SE,126,0.0,1.0,82,0.00,,,0.00,meteohub,2013-02-09 13:57:00,
2013-02-09 06:02:00,36.1,30.6,29.89,SE,126,0.0,1.0,80,0.00,,,0.00,meteohub,2013-02-09 14:02:00,
2013-02-09 06:07:00,36.1,30.6,29.89,SE,126,0.0,1.0,80,0.00,,,0.00,meteohub,2013-02-09 14:07:00,
2013-02-09 06:12:00,36.0,30.4,29.89,SE,126,0.0,0.0,80,0.00,,,0.00,meteohub,2013-02-09 14:12:00,
2013-02-09 06:17:00,36.0,30.4,29.89,SE,126,1.0,0.0,80,0.00,,,0.00,meteohub,2013-02-09 14:17:00,
2013-02-09 06:22:00,36.0,30.7,29.89,SE,126,0.0,1.0,81,0.00,,,0.00,meteohub,2013-02-09 14:22:00,
2013-02-09 06:27:00,36.0,30.4,29.90,SE,126,0.0,1.0,80,0.00,,,0.00,meteohub,2013-02-09 14:27:00,
2013-02-09 06:32:00,35.6,30.7,29.90,SE,126,0.0,1.0,82,0.00,,,0.00,meteohub,2013-02-09 14:32:00,
2013-02-09 06:37:00,35.4,30.6,29.90,SE,126,0.0,1.0,82,0.00,,,0.00,meteohub,2013-02-09 14:37:00,
2013-02-09 06:42:00,35.4,30.6,29.90,SE,126,0.0,1.0,82,0.00,,,0.00,meteohub,2013-02-09 14:42:00,
2013-02-09 06:47:00,35.4,30.6,29.90,SE,126,0.0,2.0,82,0.00,,,0.00,meteohub,2013-02-09 14:47:00,
2013-02-09 06:52:00,35.2,30.6,29.90,SE,126,0.0,2.0,83,0.00,,,0.00,meteohub,2013-02-09 14:52:00,
2013-02-09 06:57:00,35.2,30.6,29.90,SE,126,0.0,2.0,83,0.00,,,0.00,meteohub,2013-02-09 14:57:00,
2013-02-09 07:02:00,35.1,30.4,29.90,SE,126,0.0,0.0,83,0.00,,,0.00,meteohub,2013-02-09 15:02:00,
2013-02-09 07:07:00,34.9,30.6,29.90,SE,126,0.0,0.0,84,0.00,,,0.00,meteohub,2013-02-09 15:07:00,
2013-02-09 07:12:00,34.5,29.8,29.90,SE,126,0.0,1.0,83,0.00,,,0.00,meteohub,2013-02-09 15:12:00,
2013-02-09 07:17:00,34.5,30.2,29.90,SE,126,0.0,2.0,84,0.00,,,0.00,meteohub,2013-02-09 15:17:00,
2013-02-09 07:22:00,34.5,30.2,29.90,SE,126,0.0,2.0,84,0.00,,,0.00,meteohub,2013-02-09 15:22:00,
2013-02-09 07:27:00,34.5,30.2,29.90,SE,126,0.0,3.0,84,0.00,,,0.00,meteohub,2013-02-09 15:27:00,
2013-02-09 07:32:00,34.7,30.7,29.90,SE,126,0.0,3.0,85,0.00,,,0.00,meteohub,2013-02-09 15:32:00,
2013-02-09 07:37:00,34.7,30.4,29.90,SE,126,0.0,3.0,84,0.00,,,0.00,meteohub,2013-02-09 15:37:00,
2013-02-09 07:42:00,35.1,30.9,29.91,SE,126,0.0,2.0,85,0.00,,,0.00,meteohub,2013-02-09 15:42:00,
2013-02-09 07:47:00,35.2,30.6,29.91,SE,126,0.0,1.0,83,0.00,,,0.00,meteohub,2013-02-09 15:47:00,
2013-02-09 07:52:00,35.4,30.7,29.91,SE,126,0.0,1.0,83,0.00,,,0.00,meteohub,2013-02-09 15:52:00,
2013-02-09 07:57:00,35.6,30.7,29.91,SE,126,0.0,1.0,82,0.00,,,0.00,meteohub,2013-02-09 15:57:00,
2013-02-09 08:02:00,36.0,30.7,29.91,SE,126,0.0,1.0,81,0.00,,,0.00,meteohub,2013-02-09 16:02:00,
2013-02-09 08:07:00,36.3,31.1,29.91,SE,126,0.0,2.0,81,0.00,,,0.00,meteohub,2013-02-09 16:07:00,
2013-02-09 08:12:00,37.2,32.0,29.91,SE,126,0.0,2.0,81,0.00,,,0.00,meteohub,2013-02-09 16:12:00,
2013-02-09 08:17:00,38.5,31.8,29.91,SE,126,0.0,1.0,77,0.00,,,0.00,meteohub,2013-02-09 16:17:00,
2013-02-09 08:22:00,39.4,32.5,29.91,SE,126,0.0,1.0,76,0.00,,,0.00,meteohub,2013-02-09 16:22:00,
2013-02-09 08:27:00,40.3,32.7,29.90,SE,126,0.0,1.0,74,0.00,,,0.00,meteohub,2013-02-09 16:27:00,
2013-02-09 08:32:00,41.2,33.3,29.90,SE,126,0.0,0.0,73,0.00,,,0.00,meteohub,2013-02-09 16:32:00,
2013-02-09 08:37:00,42.1,33.4,29.90,SE,126,0.0,0.0,71,0.00,,,0.00,meteohub,2013-02-09 16:37:00,
2013-02-09 08:42:00,42.8,31.5,29.90,SE,127,0.0,0.0,64,0.00,,,0.00,meteohub,2013-02-09 16:42:00,
2013-02-09 08:47:00,43.2,32.2,29.90,SE,127,2.0,4.0,65,0.00,,,0.00,meteohub,2013-02-09 16:47:00,
2013-02-09 08:52:00,43.3,32.7,29.90,SE,127,0.0,4.0,66,0.00,,,0.00,meteohub,2013-02-09 16:52:00,
2013-02-09 08:57:00,43.5,33.6,29.91,SE,127,2.0,4.0,68,0.00,,,0.00,meteohub,2013-02-09 16:57:00,
2013-02-09 09:02:00,44.1,33.8,29.91,SE,127,0.0,3.0,67,0.00,,,0.00,meteohub,2013-02-09 17:02:00,
2013-02-09 09:07:00,44.2,33.6,29.91,SE,127,0.0,2.0,66,0.00,,,0.00,meteohub,2013-02-09 17:07:00,
2013-02-09 09:12:00,44.6,34.0,29.91,SE,127,2.0,2.0,66,0.00,,,0.00,meteohub,2013-02-09 17:12:00,
2013-02-09 09:17:00,44.8,34.5,29.91,SE,127,0.0,2.0,67,0.00,,,0.00,meteohub,2013-02-09 17:17:00,
2013-02-09 09:22:00,45.3,33.8,29.91,SE,127,0.0,2.0,64,0.00,,,0.00,meteohub,2013-02-09 17:22:00,
2013-02-09 09:27:00,46.2,32.7,29.91,SSE,147,3.0,3.0,59,0.00,,,0.00,meteohub,2013-02-09 17:27:00,
2013-02-09 09:32:00,47.7,30.4,29.91,SSE,151,3.0,3.0,51,0.00,,,0.00,meteohub,2013-02-09 17:32:00,
2013-02-09 09:37:00,48.7,31.5,29.91,SE,141,1.0,4.0,51,0.00,,,0.00,meteohub,2013-02-09 17:37:00,
2013-02-09 09:42:00,49.8,29.8,29.91,SE,130,1.0,4.0,46,0.00,,,0.00,meteohub,2013-02-09 17:42:00,
2013-02-09 09:47:00,51.1,28.8,29.91,South,176,0.0,5.0,42,0.00,,,0.00,meteohub,2013-02-09 17:47:00,
2013-02-09 09:52:00,51.4,28.6,29.91,South,176,1.0,5.0,41,0.00,,,0.00,meteohub,2013-02-09 17:52:00,
2013-02-09 09:57:00,52.0,29.7,29.91,South,176,1.0,4.0,42,0.00,,,0.00,meteohub,2013-02-09 17:57:00,
2013-02-09 10:02:00,52.5,30.0,29.91,South,176,1.0,4.0,42,0.00,,,0.00,meteohub,2013-02-09 18:02:00,
2013-02-09 10:07:00,53.1,28.0,29.91,South,176,0.0,3.0,38,0.00,,,0.00,meteohub,2013-02-09 18:07:00,
2013-02-09 10:12:00,53.4,27.9,29.91,South,176,0.0,3.0,37,0.00,,,0.00,meteohub,2013-02-09 18:12:00,
2013-02-09 10:17:00,53.8,28.8,29.91,South,176,0.0,3.0,38,0.00,,,0.00,meteohub,2013-02-09 18:17:00,
2013-02-09 10:22:00,54.0,28.9,29.91,South,176,0.0,3.0,38,0.00,,,0.00,meteohub,2013-02-09 18:22:00,
2013-02-09 10:27:00,54.3,29.3,29.92,South,173,2.0,6.0,38,0.00,,,0.00,meteohub,2013-02-09 18:27:00,
2013-02-09 10:32:00,54.7,28.9,29.92,South,173,0.0,6.0,37,0.00,,,0.00,meteohub,2013-02-09 18:32:00,
2013-02-09 10:37:00,55.2,28.8,29.92,South,173,0.0,6.0,36,0.00,,,0.00,meteohub,2013-02-09 18:37:00,
2013-02-09 10:42:00,55.6,25.3,29.91,South,173,2.0,3.0,31,0.00,,,0.00,meteohub,2013-02-09 18:42:00,
2013-02-09 10:47:00,55.4,25.3,29.91,South,173,0.0,4.0,31,0.00,,,0.00,meteohub,2013-02-09 18:47:00,
2013-02-09 10:52:00,55.6,28.4,29.91,South,173,0.0,4.0,35,0.00,,,0.00,meteohub,2013-02-09 18:52:00,
2013-02-09 10:57:00,55.6,31.1,29.91,South,173,0.0,3.0,39,0.00,,,0.00,meteohub,2013-02-09 18:57:00,
2013-02-09 11:02:00,55.6,29.7,29.91,South,173,2.0,2.0,37,0.00,,,0.00,meteohub,2013-02-09 19:02:00,
2013-02-09 11:07:00,55.6,27.0,29.91,SSW,195,0.0,5.0,33,0.00,,,0.00,meteohub,2013-02-09 19:07:00,
2013-02-09 11:12:00,55.9,25.0,29.91,SSW,195,0.0,5.0,30,0.00,,,0.00,meteohub,2013-02-09 19:12:00,
2013-02-09 11:17:00,56.3,26.1,29.91,SSW,195,0.0,5.0,31,0.00,,,0.00,meteohub,2013-02-09 19:17:00,
2013-02-09 11:22:00,56.5,28.4,29.91,SSW,195,0.0,3.0,34,0.00,,,0.00,meteohub,2013-02-09 19:22:00,
2013-02-09 11:27:00,56.1,27.3,29.91,SSW,195,1.0,3.0,33,0.00,,,0.00,meteohub,2013-02-09 19:27:00,
2013-02-09 11:32:00,56.1,30.2,29.91,SSW,194,0.0,3.0,37,0.00,,,0.00,meteohub,2013-02-09 19:32:00,
2013-02-09 11:37:00,56.3,26.1,29.91,SSW,211,1.0,3.0,31,0.00,,,0.00,meteohub,2013-02-09 19:37:00,
2013-02-09 11:42:00,56.5,27.0,29.91,SSW,211,0.0,4.0,32,0.00,,,0.00,meteohub,2013-02-09 19:42:00,
2013-02-09 11:47:00,56.7,26.4,29.91,SSW,211,2.0,4.0,31,0.00,,,0.00,meteohub,2013-02-09 19:47:00,
2013-02-09 11:52:00,56.3,26.8,29.91,SSW,211,2.0,4.0,32,0.00,,,0.00,meteohub,2013-02-09 19:52:00,
2013-02-09 11:57:00,56.1,28.8,29.90,SSW,211,0.0,3.0,35,0.00,,,0.00,meteohub,2013-02-09 19:57:00,
2013-02-09 12:02:00,56.1,27.3,29.90,SSW,211,0.0,3.0,33,0.00,,,0.00,meteohub,2013-02-09 20:02:00,
2013-02-09 12:07:00,55.8,26.4,29.90,SSW,211,0.0,2.0,32,0.00,,,0.00,meteohub,2013-02-09 20:07:00,
2013-02-09 12:12:00,55.9,30.0,29.91,SSW,211,1.0,4.0,37,0.00,,,0.00,meteohub,2013-02-09 20:12:00,
2013-02-09 12:17:00,55.6,31.6,29.91,SW,214,1.0,4.0,40,0.00,,,0.00,meteohub,2013-02-09 20:17:00,
2013-02-09 12:22:00,55.4,31.5,29.91,SW,214,0.0,4.0,40,0.00,,,0.00,meteohub,2013-02-09 20:22:00,
2013-02-09 12:27:00,55.2,30.0,29.90,SW,214,0.0,4.0,38,0.00,,,0.00,meteohub,2013-02-09 20:27:00,
2013-02-09 12:32:00,55.2,28.8,29.90,SW,215,2.0,4.0,36,0.00,,,0.00,meteohub,2013-02-09 20:32:00,
2013-02-09 12:37:00,55.4,30.9,29.90,SW,215,2.0,5.0,39,0.00,,,0.00,meteohub,2013-02-09 20:37:00,
2013-02-09 12:42:00,55.2,27.3,29.90,SW,215,0.0,5.0,34,0.00,,,0.00,meteohub,2013-02-09 20:42:00,
2013-02-09 12:47:00,55.0,29.8,29.90,SW,215,1.0,5.0,38,0.00,,,0.00,meteohub,2013-02-09 20:47:00,
2013-02-09 12:52:00,54.9,27.0,29.90,SW,215,0.0,3.0,34,0.00,,,0.00,meteohub,2013-02-09 20:52:00,
2013-02-09 12:57:00,54.9,28.4,29.90,SW,215,1.0,1.0,36,0.00,,,0.00,meteohub,2013-02-09 20:57:00,
2013-02-09 13:02:00,54.9,28.4,29.90,SW,215,0.0,4.0,36,0.00,,,0.00,meteohub,2013-02-09 21:02:00,
2013-02-09 13:07:00,54.9,27.7,29.90,SSW,211,3.0,4.0,35,0.00,,,0.00,meteohub,2013-02-09 21:07:00,
2013-02-09 13:12:00,55.0,31.1,29.90,SSW,211,0.0,4.0,40,0.00,,,0.00,meteohub,2013-02-09 21:12:00,
2013-02-09 13:17:00,55.0,32.4,29.90,SSW,211,0.0,4.0,42,0.00,,,0.00,meteohub,2013-02-09 21:17:00,
2013-02-09 13:22:00,55.2,28.0,29.90,SSW,212,0.0,5.0,35,0.00,,,0.00,meteohub,2013-02-09 21:22:00,
2013-02-09 13:27:00,55.2,31.3,29.89,SSW,212,0.0,5.0,40,0.00,,,0.00,meteohub,2013-02-09 21:27:00,
2013-02-09 13:32:00,55.0,29.8,29.89,SSW,212,3.0,4.0,38,0.00,,,0.00,meteohub,2013-02-09 21:32:00,
2013-02-09 13:37:00,55.2,25.9,29.89,SSW,212,0.0,4.0,32,0.00,,,0.00,meteohub,2013-02-09 21:37:00,
2013-02-09 13:42:00,55.6,29.1,29.89,SSW,212,0.0,4.0,36,0.00,,,0.00,meteohub,2013-02-09 21:42:00,
2013-02-09 13:47:00,55.2,29.5,29.89,SSW,212,0.0,4.0,37,0.00,,,0.00,meteohub,2013-02-09 21:47:00,
2013-02-09 13:52:00,55.2,31.3,29.89,SSW,212,0.0,3.0,40,0.00,,,0.00,meteohub,2013-02-09 21:52:00,
2013-02-09 13:57:00,55.2,26.6,29.89,SSW,212,0.0,2.0,33,0.00,,,0.00,meteohub,2013-02-09 21:57:00,
2013-02-09 14:02:00,55.4,25.3,29.89,SSW,199,2.0,3.0,31,0.00,,,0.00,meteohub,2013-02-09 22:02:00,
2013-02-09 14:07:00,55.9,26.4,29.89,SSW,198,1.0,5.0,32,0.00,,,0.00,meteohub,2013-02-09 22:07:00,
2013-02-09 14:12:00,55.8,27.9,29.88,SSW,198,1.0,5.0,34,0.00,,,0.00,meteohub,2013-02-09 22:12:00,
2013-02-09 14:17:00,55.8,27.1,29.88,SSW,198,0.0,5.0,33,0.00,,,0.00,meteohub,2013-02-09 22:17:00,
2013-02-09 14:22:00,55.6,28.4,29.88,SSW,198,2.0,3.0,35,0.00,,,0.00,meteohub,2013-02-09 22:22:00,
2013-02-09 14:27:00,55.8,24.8,29.88,SSW,198,2.0,3.0,30,0.00,,,0.00,meteohub,2013-02-09 22:27:00,
2013-02-09 14:32:00,55.9,28.0,29.88,SSW,198,0.0,3.0,34,0.00,,,0.00,meteohub,2013-02-09 22:32:00,
2013-02-09 14:37:00,55.6,30.4,29.88,SSW,198,0.0,3.0,38,0.00,,,0.00,meteohub,2013-02-09 22:37:00,
2013-02-09 14:42:00,55.0,29.3,29.88,SSW,198,1.0,3.0,37,0.00,,,0.00,meteohub,2013-02-09 22:42:00,
2013-02-09 14:47:00,54.9,30.4,29.88,SSW,198,1.0,2.0,39,0.00,,,0.00,meteohub,2013-02-09 22:47:00,
2013-02-09 14:52:00,54.5,31.3,29.88,SSW,198,0.0,2.0,41,0.00,,,0.00,meteohub,2013-02-09 22:52:00,
2013-02-09 14:57:00,54.3,27.3,29.89,SSW,198,2.0,2.0,35,0.00,,,0.00,meteohub,2013-02-09 22:57:00,
2013-02-09 15:02:00,54.5,31.3,29.89,SSW,198,0.0,3.0,41,0.00,,,0.00,meteohub,2013-02-09 23:02:00,
2013-02-09 15:07:00,54.5,30.0,29.89,SSW,198,0.0,3.0,39,0.00,,,0.00,meteohub,2013-02-09 23:07:00,
2013-02-09 15:12:00,54.7,33.8,29.89,SSW,199,0.0,3.0,45,0.00,,,0.00,meteohub,2013-02-09 23:12:00,
2013-02-09 15:17:00,54.9,36.5,29.89,SSW,207,0.0,4.0,50,0.00,,,0.00,meteohub,2013-02-09 23:17:00,
2013-02-09 15:22:00,54.7,37.4,29.89,SSW,207,1.0,5.0,52,0.00,,,0.00,meteohub,2013-02-09 23:22:00,
2013-02-09 15:27:00,54.3,37.6,29.89,SSW,207,0.0,5.0,53,0.00,,,0.00,meteohub,2013-02-09 23:27:00,
2013-02-09 15:32:00,54.0,36.7,29.89,SSW,207,0.0,3.0,52,0.00,,,0.00,meteohub,2013-02-09 23:32:00,
2013-02-09 15:37:00,53.8,37.0,29.89,SSW,207,0.0,3.0,53,0.00,,,0.00,meteohub,2013-02-09 23:37:00,
2013-02-09 15:42:00,53.8,36.1,29.89,SSW,213,0.0,3.0,51,0.00,,,0.00,meteohub,2013-02-09 23:42:00,
2013-02-09 15:47:00,53.8,36.1,29.89,SSW,213,1.0,7.0,51,0.00,,,0.00,meteohub,2013-02-09 23:47:00,
2013-02-09 15:52:00,53.6,34.9,29.89,SSW,213,0.0,7.0,49,0.00,,,0.00,meteohub,2013-02-09 23:52:00,
2013-02-09 15:57:00,53.2,37.0,29.90,SSW,213,0.0,4.0,54,0.00,,,0.00,meteohub,2013-02-09 23:57:00,
2013-02-09 16:02:00,53.1,38.3,29.90,SSW,213,0.0,4.0,57,0.00,,,0.00,meteohub,2013-02-10 00:02:00,
2013-02-09 16:07:00,52.7,37.4,29.90,SSW,213,0.0,3.0,56,0.00,,,0.00,meteohub,2013-02-10 00:07:00,
2013-02-09 16:12:00,52.3,37.0,29.90,SSW,213,0.0,2.0,56,0.00,,,0.00,meteohub,2013-02-10 00:12:00,
2013-02-09 16:17:00,52.2,35.1,29.90,SSW,213,0.0,4.0,52,0.00,,,0.00,meteohub,2013-02-10 00:17:00,
2013-02-09 16:22:00,52.2,37.4,29.90,SSW,213,0.0,4.0,57,0.00,,,0.00,meteohub,2013-02-10 00:22:00,
2013-02-09 16:27:00,52.0,36.9,29.91,SSW,213,0.0,4.0,56,0.00,,,0.00,meteohub,2013-02-10 00:27:00,
2013-02-09 16:32:00,51.4,37.2,29.91,SSW,213,0.0,3.0,58,0.00,,,0.00,meteohub,2013-02-10 00:32:00,
2013-02-09 16:37:00,51.1,37.2,29.91,SSW,213,0.0,3.0,59,0.00,,,0.00,meteohub,2013-02-10 00:37:00,
2013-02-09 16:42:00,51.1,34.0,29.90,SW,221,0.0,5.0,52,0.00,,,0.00,meteohub,2013-02-10 00:42:00,
2013-02-09 16:47:00,51.1,35.1,29.90,SW,221,0.0,6.0,54,0.00,,,0.00,meteohub,2013-02-10 00:47:00,
2013-02-09 16:52:00,50.7,34.2,29.90,SW,221,0.0,6.0,53,0.00,,,0.00,meteohub,2013-02-10 00:52:00,
2013-02-09 16:57:00,50.7,33.8,29.90,SW,222,0.0,6.0,52,0.00,,,0.00,meteohub,2013-02-10 00:57:00,
2013-02-09 17:02:00,50.5,34.5,29.90,SW,222,0.0,3.0,54,0.00,,,0.00,meteohub,2013-02-10 01:02:00,
2013-02-09 17:07:00,50.4,37.0,29.90,SW,222,0.0,3.0,60,0.00,,,0.00,meteohub,2013-02-10 01:07:00,
2013-02-09 17:12:00,49.8,33.4,29.91,SW,222,0.0,1.0,53,0.00,,,0.00,meteohub,2013-02-10 01:12:00,
2013-02-09 17:17:00,49.5,36.1,29.91,SW,222,0.0,2.0,60,0.00,,,0.00,meteohub,2013-02-10 01:17:00,
2013-02-09 17:22:00,48.9,34.9,29.91,SW,222,0.0,2.0,58,0.00,,,0.00,meteohub,2013-02-10 01:22:00,
2013-02-09 17:27:00,48.6,36.5,29.91,SW,222,0.0,2.0,63,0.00,,,0.00,meteohub,2013-02-10 01:27:00,
2013-02-09 17:32:00,48.2,35.8,29.91,SW,222,0.0,1.0,62,0.00,,,0.00,meteohub,2013-02-10 01:32:00,
2013-02-09 17:37:00,47.7,35.2,29.91,SW,222,0.0,0.0,62,0.00,,,0.00,meteohub,2013-02-10 01:37:00,
2013-02-09 17:42:00,47.3,35.4,29.92,SW,222,0.0,1.0,63,0.00,,,0.00,meteohub,2013-02-10 01:42:00,
2013-02-09 17:47:00,46.8,35.2,29.92,SW,222,0.0,1.0,64,0.00,,,0.00,meteohub,2013-02-10 01:47:00,
2013-02-09 17:52:00,46.6,35.1,29.92,SW,222,0.0,1.0,64,0.00,,,0.00,meteohub,2013-02-10 01:52:00,
2013-02-09 17:57:00,46.4,34.9,29.93,SW,222,0.0,1.0,64,0.00,,,0.00,meteohub,2013-02-10 01:57:00,
2013-02-09 18:02:00,46.0,34.5,29.93,SW,222,0.0,1.0,64,0.00,,,0.00,meteohub,2013-02-10 02:02:00,
2013-02-09 18:07:00,45.7,34.2,29.93,SW,222,0.0,0.0,64,0.00,,,0.00,meteohub,2013-02-10 02:07:00,
2013-02-09 18:12:00,45.1,34.2,29.93,SW,222,0.0,1.0,65,0.00,,,0.00,meteohub,2013-02-10 02:12:00,
2013-02-09 18:17:00,45.0,33.4,29.93,SW,222,0.0,1.0,64,0.00,,,0.00,meteohub,2013-02-10 02:17:00,
2013-02-09 18:22:00,44.4,33.1,29.93,SW,222,0.0,1.0,64,0.00,,,0.00,meteohub,2013-02-10 02:22:00,
2013-02-09 18:27:00,44.1,32.4,29.94,SW,222,0.0,0.0,63,0.00,,,0.00,meteohub,2013-02-10 02:27:00,
2013-02-09 18:33:00,43.7,33.1,29.94,SW,222,0.0,0.0,66,0.00,,,0.00,meteohub,2013-02-10 02:33:00,
2013-02-09 18:38:00,43.3,32.7,29.94,SW,222,0.0,0.0,66,0.00,,,0.00,meteohub,2013-02-10 02:38:00,
2013-02-09 18:43:00,43.0,32.4,29.94,SW,222,0.0,0.0,66,0.00,,,0.00,meteohub,2013-02-10 02:43:00,
2013-02-09 18:48:00,42.6,32.7,29.94,SW,222,0.0,0.0,68,0.00,,,0.00,meteohub,2013-02-10 02:48:00,
2013-02-09 18:53:00,42.3,32.2,29.94,SW,222,0.0,0.0,67,0.00,,,0.00,meteohub,2013-02-10 02:53:00,
2013-02-09 18:58:00,42.1,32.4,29.95,SW,222,0.0,0.0,68,0.00,,,0.00,meteohub,2013-02-10 02:58:00,
2013-02-09 19:03:00,41.7,32.0,29.95,SW,222,0.0,0.0,68,0.00,,,0.00,meteohub,2013-02-10 03:03:00,
2013-02-09 19:08:00,41.4,31.6,29.95,SW,222,0.0,0.0,68,0.00,,,0.00,meteohub,2013-02-10 03:08:00,
2013-02-09 19:13:00,41.2,31.8,29.95,SW,222,0.0,0.0,69,0.00,,,0.00,meteohub,2013-02-10 03:13:00,
2013-02-09 19:18:00,40.8,31.5,29.95,SW,222,0.0,0.0,69,0.00,,,0.00,meteohub,2013-02-10 03:18:00,
2013-02-09 19:23:00,40.6,31.6,29.95,SW,222,0.0,0.0,70,0.00,,,0.00,meteohub,2013-02-10 03:23:00,
2013-02-09 19:28:00,40.3,31.6,29.95,SW,222,0.0,0.0,71,0.00,,,0.00,meteohub,2013-02-10 03:28:00,
2013-02-09 19:33:00,40.1,31.5,29.95,SW,222,0.0,0.0,71,0.00,,,0.00,meteohub,2013-02-10 03:33:00,
2013-02-09 19:38:00,39.7,31.1,29.95,SW,222,0.0,0.0,71,0.00,,,0.00,meteohub,2013-02-10 03:38:00,
2013-02-09 19:43:00,39.6,31.3,29.96,SW,222,0.0,0.0,72,0.00,,,0.00,meteohub,2013-02-10 03:43:00,
2013-02-09 19:48:00,39.4,31.8,29.96,SW,222,0.0,0.0,74,0.00,,,0.00,meteohub,2013-02-10 03:48:00,
2013-02-09 19:53:00,39.4,31.8,29.96,SW,222,0.0,0.0,74,0.00,,,0.00,meteohub,2013-02-10 03:53:00,
2013-02-09 19:58:00,39.2,32.0,29.96,SW,222,0.0,0.0,75,0.00,,,0.00,meteohub,2013-02-10 03:58:00,
2013-02-09 20:03:00,39.0,31.8,29.96,SW,222,0.0,0.0,75,0.00,,,0.00,meteohub,2013-02-10 04:03:00,
2013-02-09 20:08:00,39.0,32.2,29.96,SW,222,0.0,0.0,76,0.00,,,0.00,meteohub,2013-02-10 04:08:00,
2013-02-09 20:13:00,38.8,31.6,29.96,SW,222,0.0,0.0,75,0.00,,,0.00,meteohub,2013-02-10 04:13:00,
2013-02-09 20:18:00,38.8,32.0,29.96,SW,222,0.0,0.0,76,0.00,,,0.00,meteohub,2013-02-10 04:18:00,
2013-02-09 20:23:00,38.7,32.0,29.96,SW,222,0.0,0.0,77,0.00,,,0.00,meteohub,2013-02-10 04:23:00,
2013-02-09 20:28:00,38.5,31.8,29.96,SW,222,0.0,0.0,77,0.00,,,0.00,meteohub,2013-02-10 04:28:00,
2013-02-09 20:33:00,38.5,32.2,29.96,SW,222,0.0,0.0,78,0.00,,,0.00,meteohub,2013-02-10 04:33:00,
2013-02-09 20:38:00,38.5,32.2,29.96,SW,222,0.0,0.0,78,0.00,,,0.00,meteohub,2013-02-10 04:38:00,
2013-02-09 20:43:00,38.3,31.6,29.95,SW,222,0.0,0.0,77,0.00,,,0.00,meteohub,2013-02-10 04:43:00,
2013-02-09 20:48:00,38.1,31.8,29.95,SW,222,0.0,0.0,78,0.00,,,0.00,meteohub,2013-02-10 04:48:00,
2013-02-09 20:53:00,38.1,31.8,29.95,SW,222,0.0,0.0,78,0.00,,,0.00,meteohub,2013-02-10 04:53:00,
2013-02-09 20:58:00,38.1,31.8,29.95,SW,222,0.0,0.0,78,0.00,,,0.00,meteohub,2013-02-10 04:58:00,
2013-02-09 21:00:00,37.9,31.5,29.95,SW,222,0.0,0.0,77,0.00,,,0.00,meteohub,2013-02-10 05:00:00,
2013-02-09 21:05:00,38.1,31.6,29.95,SW,222,0.0,0.0,77,0.00,,,0.00,meteohub,2013-02-10 05:05:00,
2013-02-09 21:10:00,38.3,31.5,29.96,SW,222,0.0,1.0,76,0.00,,,0.00,meteohub,2013-02-10 05:10:00,
2013-02-09 21:15:00,38.5,31.3,29.96,SW,222,0.0,1.0,75,0.00,,,0.00,meteohub,2013-02-10 05:15:00,
2013-02-09 21:20:00,38.5,31.6,29.96,SW,222,0.0,1.0,76,0.00,,,0.00,meteohub,2013-02-10 05:20:00,
2013-02-09 21:25:00,38.3,31.1,29.95,SW,222,0.0,0.0,75,0.00,,,0.00,meteohub,2013-02-10 05:25:00,
2013-02-09 21:30:00,38.5,31.3,29.95,SW,222,0.0,0.0,75,0.00,,,0.00,meteohub,2013-02-10 05:30:00,
2013-02-09 21:35:00,38.5,31.3,29.95,SW,222,0.0,0.0,75,0.00,,,0.00,meteohub,2013-02-10 05:35:00,
2013-02-09 21:40:00,38.3,31.1,29.95,SW,222,0.0,0.0,75,0.00,,,0.00,meteohub,2013-02-10 05:40:00,
2013-02-09 21:45:00,38.1,30.6,29.95,SW,222,0.0,0.0,74,0.00,,,0.00,meteohub,2013-02-10 05:45:00,
2013-02-09 21:50:00,37.9,31.1,29.95,SW,222,0.0,0.0,76,0.00,,,0.00,meteohub,2013-02-10 05:50:00,
2013-02-09 21:55:00,37.8,31.3,29.95,SW,222,0.0,0.0,77,0.00,,,0.00,meteohub,2013-02-10 05:55:00,
2013-02-09 22:00:00,37.6,31.1,29.95,SW,222,0.0,0.0,77,0.00,,,0.00,meteohub,2013-02-10 06:00:00,
2013-02-09 22:05:00,37.2,30.4,29.95,SW,222,0.0,0.0,76,0.00,,,0.00,meteohub,2013-02-10 06:05:00,
2013-02-09 22:10:00,37.0,30.6,29.95,SW,222,0.0,0.0,77,0.00,,,0.00,meteohub,2013-02-10 06:10:00,
2013-02-09 22:15:00,37.0,31.1,29.95,SW,222,0.0,0.0,79,0.00,,,0.00,meteohub,2013-02-10 06:15:00,
2013-02-09 22:20:00,37.0,31.1,29.95,SW,222,0.0,0.0,79,0.00,,,0.00,meteohub,2013-02-10 06:20:00,
2013-02-09 22:25:00,37.0,31.1,29.95,SW,222,0.0,0.0,79,0.00,,,0.00,meteohub,2013-02-10 06:25:00,
2013-02-09 22:30:00,37.0,31.5,29.95,SW,222,0.0,0.0,80,0.00,,,0.00,meteohub,2013-02-10 06:30:00,
2013-02-09 22:35:00,37.0,31.1,29.95,SW,222,0.0,0.0,79,0.00,,,0.00,meteohub,2013-02-10 06:35:00,
2013-02-09 22:40:00,37.0,30.7,29.95,SW,222,0.0,0.0,78,0.00,,,0.00,meteohub,2013-02-10 06:40:00,
2013-02-09 22:45:00,36.9,30.6,29.95,SW,222,0.0,0.0,78,0.00,,,0.00,meteohub,2013-02-10 06:45:00,
2013-02-09 22:50:00,36.7,30.7,29.95,SW,222,0.0,0.0,79,0.00,,,0.00,meteohub,2013-02-10 06:50:00,
2013-02-09 22:55:00,36.5,30.6,29.95,SW,222,0.0,0.0,79,0.00,,,0.00,meteohub,2013-02-10 06:55:00,
2013-02-09 23:00:00,36.3,30.4,29.95,SW,222,0.0,0.0,79,0.00,,,0.00,meteohub,2013-02-10 07:00:00,
2013-02-09 23:05:00,36.1,30.2,29.95,SW,222,0.0,0.0,79,0.00,,,0.00,meteohub,2013-02-10 07:05:00,
2013-02-09 23:10:00,36.1,30.6,29.96,SW,222,0.0,0.0,80,0.00,,,0.00,meteohub,2013-02-10 07:10:00,
2013-02-09 23:15:00,36.0,30.4,29.96,SW,222,0.0,0.0,80,0.00,,,0.00,meteohub,2013-02-10 07:15:00,
2013-02-09 23:20:00,35.8,30.2,29.96,SW,222,0.0,0.0,80,0.00,,,0.00,meteohub,2013-02-10 07:20:00,
2013-02-09 23:25:00,35.8,30.6,29.96,SW,222,0.0,0.0,81,0.00,,,0.00,meteohub,2013-02-10 07:25:00,
2013-02-09 23:30:00,35.8,30.7,29.96,SW,222,0.0,0.0,82,0.00,,,0.00,meteohub,2013-02-10 07:30:00,
2013-02-09 23:35:00,35.8,30.6,29.96,SW,222,0.0,0.0,81,0.00,,,0.00,meteohub,2013-02-10 07:35:00,
2013-02-09 23:40:00,35.8,30.6,29.96,SW,222,0.0,0.0,81,0.00,,,0.00,meteohub,2013-02-10 07:40:00,
2013-02-09 23:45:00,35.8,30.6,29.96,SW,222,0.0,0.0,81,0.00,,,0.00,meteohub,2013-02-10 07:45:00,
2013-02-09 23:50:00,35.8,30.7,29.96,SW,222,0.0,0.0,82,0.00,,,0.00,meteohub,2013-02-10 07:50:00,
2013-02-09 23:55:00,35.8,30.7,29.96,SW,222,0.0,0.0,82,0.00,,,0.00,meteohub,2013-02-10 07:55:00,